Terminal Aerodrome Forecast
Issued by NWS

Home | Current Version | Previous Version | Text Only | Print | Product List | Glossary On
Versions: 1 2 3 4 5 6 7 8 9 10 11 12 13
000
FTUS41 KPBZ 281300 AAA
TAFAGC
TAF AMD
KAGC 281320Z 2813/2912 33008G18KT 4SM -DZ BR BKN005 OVC012
      TEMPO 2813/2815 2SM -SHRASN BKN008
     FM281600 30006KT P6SM BKN025
     FM282200 32005KT P6SM BKN035=

USA.gov is the U.S. government's official web portal to all federal, state and local government web resources and services.